Time;durP1;ratioP1;P1;durP2;ratioP2;P2;SDS_P1;SDS_P2;PMS_P1;PMS_P2;Temp;Humidity;BMP_temperature;BMP_pressure;BME280_temperature;BME280_humidity;BME280_pressure;Samples;Min_cycle;Max_cycle;Signal;HPM_P1;HPM_P2
2021/03/10 00:02:28;;;;;;;74.33;30.43;;;;;;;-3.38;65.73;98964.78;258946;1108;23041;-72
2021/03/10 00:07:39;;;;;;;75.73;31.87;;;;;;;-3.36;66.64;98968.00;259018;1108;23229;-72
2021/03/10 00:12:42;;;;;;;73.50;31.10;;;;;;;-3.37;66.04;98970.81;259018;1107;23039;-71
2021/03/10 00:17:44;;;;;;;76.37;31.10;;;;;;;-3.35;66.60;98971.45;259047;1109;23224;-71
2021/03/10 00:22:48;;;;;;;70.60;30.20;;;;;;;-3.34;66.63;98976.49;258965;1109;23080;-72
2021/03/10 00:27:50;;;;;;;72.60;30.33;;;;;;;-3.33;66.72;98972.87;259206;1108;23022;-72
2021/03/10 00:32:52;;;;;;;76.20;29.97;;;;;;;-3.35;66.72;98967.01;258945;1108;23027;-71
2021/03/10 00:38:04;;;;;;;70.73;29.47;;;;;;;-3.35;66.63;98972.25;259145;1108;23202;-73
2021/03/10 00:43:06;;;;;;;69.53;27.47;;;;;;;-3.41;66.33;98967.79;259025;1108;23027;-73
2021/03/10 00:48:08;;;;;;;63.87;27.47;;;;;;;-3.44;66.69;98966.36;259022;1108;23086;-72
2021/03/10 00:53:11;;;;;;;67.57;27.43;;;;;;;-3.44;66.76;98965.56;259013;1108;23019;-72
2021/03/10 00:58:13;;;;;;;63.63;26.17;;;;;;;-3.49;66.41;98966.12;258974;1107;23226;-72
2021/03/10 01:03:15;;;;;;;67.07;26.83;;;;;;;-3.52;66.39;98969.12;258990;1109;23190;-72
2021/03/10 01:08:23;;;;;;;50.77;21.27;;;;;;;-3.51;67.09;98964.69;259121;1108;23529;-71
2021/03/10 01:13:25;;;;;;;67.67;26.83;;;;;;;-3.59;66.65;98963.04;259108;1109;23107;-70
2021/03/10 01:18:27;;;;;;;69.80;29.00;;;;;;;-3.67;66.20;98965.80;259109;1108;23472;-71
2021/03/10 01:23:31;;;;;;;56.47;22.67;;;;;;;-3.77;66.30;98955.66;258759;1108;23077;-71
2021/03/10 01:28:34;;;;;;;60.40;24.00;;;;;;;-3.83;66.86;98944.15;259035;1109;23449;-72
2021/03/10 01:33:36;;;;;;;52.33;23.13;;;;;;;-3.85;67.05;98947.95;259076;1107;23104;-71
2021/03/10 01:38:47;;;;;;;47.13;22.03;;;;;;;-3.84;66.82;98944.34;259187;1108;23228;-72
2021/03/10 01:43:49;;;;;;;58.03;24.97;;;;;;;-3.85;67.27;98947.95;258960;1108;23196;-73
2021/03/10 01:48:51;;;;;;;59.20;26.03;;;;;;;-3.85;67.16;98943.52;259151;1108;23341;-73
2021/03/10 01:53:53;;;;;;;54.53;23.10;;;;;;;-3.86;67.21;98947.16;259068;1106;23095;-71
2021/03/10 01:58:56;;;;;;;64.73;26.03;;;;;;;-3.88;67.25;98943.09;258892;1108;23154;-72
2021/03/10 02:04:10;;;;;;;51.00;21.83;;;;;;;-3.91;66.95;98935.64;259124;1108;23249;-72
2021/03/10 02:09:21;;;;;;;56.95;24.75;;;;;;;-3.95;66.91;98935.99;258977;1109;23027;-70
2021/03/10 02:14:33;;;;;;;50.00;21.33;;;;;;;-4.00;66.93;98934.94;259031;1109;23026;-72
2021/03/10 02:19:56;;;;;;;58.43;26.20;;;;;;;-4.09;66.76;98936.89;258879;1108;23079;-72
2021/03/10 02:25:10;;;;;;;60.33;25.40;;;;;;;-4.16;67.30;98931.60;258851;1108;23354;-72
2021/03/10 02:30:34;;;;;;;50.03;21.27;;;;;;;-4.17;67.80;98926.56;258880;1108;23374;-72
2021/03/10 02:35:44;;;;;;;57.67;23.67;;;;;;;-4.21;68.35;98928.77;258809;1109;23155;-72
2021/03/10 02:40:48;;;;;;;58.52;24.67;;;;;;;-4.22;67.73;98934.19;259056;1108;23024;-73
2021/03/10 02:45:51;;;;;;;62.30;25.10;;;;;;;-4.23;67.90;98927.33;259091;1109;23096;-72
2021/03/10 02:50:57;;;;;;;54.00;24.97;;;;;;;-4.23;68.73;98932.56;259205;1109;23029;-72
2021/03/10 02:56:00;;;;;;;54.90;25.37;;;;;;;-4.24;68.50;98929.14;258964;1108;23031;-71
2021/03/10 03:01:02;;;;;;;51.27;21.63;;;;;;;-4.22;68.85;98931.57;259016;1108;23030;-72
2021/03/10 03:06:05;;;;;;;55.00;24.10;;;;;;;-4.23;69.29;98935.97;259039;1108;23030;-71
2021/03/10 03:11:11;;;;;;;58.23;24.80;;;;;;;-4.25;68.51;98945.00;259100;1108;23083;-72
2021/03/10 03:16:15;;;;;;;63.00;27.40;;;;;;;-4.27;68.91;98941.78;258902;1109;23016;-71
2021/03/10 03:21:18;;;;;;;56.70;25.30;;;;;;;-4.30;69.10;98946.38;259216;1109;24370;-72
2021/03/10 03:26:21;;;;;;;57.33;24.93;;;;;;;-4.34;69.13;98939.09;259069;1109;23086;-73
2021/03/10 03:31:24;;;;;;;57.40;27.05;;;;;;;-4.40;69.32;98938.04;258979;1108;24392;-73
2021/03/10 03:36:26;;;;;;;62.30;27.03;;;;;;;-4.43;69.30;98935.80;259163;1108;23626;-71
2021/03/10 03:41:28;;;;;;;53.97;25.27;;;;;;;-4.47;69.72;98935.36;258921;1108;23076;-71
2021/03/10 03:46:32;;;;;;;57.53;23.60;;;;;;;-4.51;69.93;98943.77;259006;1107;23013;-72
2021/03/10 03:51:34;;;;;;;66.30;27.70;;;;;;;-4.58;69.64;98933.23;258869;1108;28454;-71
2021/03/10 03:56:36;;;;;;;60.87;26.50;;;;;;;-4.59;69.89;98936.84;259003;1107;23132;-72
2021/03/10 04:01:38;;;;;;;62.67;28.70;;;;;;;-4.62;70.18;98939.03;258751;1109;23072;-71
2021/03/10 04:06:46;;;;;;;63.30;27.67;;;;;;;-4.59;70.34;98939.45;259089;1109;23076;-71
2021/03/10 04:11:49;;;;;;;61.37;27.20;;;;;;;-4.60;70.28;98937.03;259007;1109;23077;-72
2021/03/10 04:16:51;;;;;;;63.90;29.10;;;;;;;-4.59;70.78;98949.91;258980;1109;23090;-71
2021/03/10 04:21:53;;;;;;;54.57;24.97;;;;;;;-4.63;70.30;98948.69;259201;1109;23150;-72
2021/03/10 04:26:55;;;;;;;61.07;25.43;;;;;;;-4.66;70.47;98949.04;259148;1109;23037;-70
2021/03/10 04:31:57;;;;;;;54.03;26.33;;;;;;;-4.72;70.53;98958.43;258952;1108;23086;-73
2021/03/10 04:36:59;;;;;;;62.67;27.87;;;;;;;-4.73;70.58;98956.00;258888;1109;23093;-71
2021/03/10 04:42:02;;;;;;;59.87;25.87;;;;;;;-4.71;70.50;98961.88;258882;1109;23018;-73
2021/03/10 04:47:04;;;;;;;47.47;22.80;;;;;;;-4.76;70.83;98959.79;258869;1109;23232;-72
2021/03/10 04:52:06;;;;;;;57.00;25.13;;;;;;;-4.75;70.70;98958.01;259020;1109;23011;-72
2021/03/10 04:57:08;;;;;;;57.57;25.17;;;;;;;-4.78;70.49;98959.18;258752;1108;23069;-72
2021/03/10 05:02:10;;;;;;;55.07;23.33;;;;;;;-4.84;70.75;98968.56;258901;1109;23154;-71
2021/03/10 05:07:13;;;;;;;59.03;27.13;;;;;;;-4.89;70.75;98970.11;259100;1109;23167;-72
2021/03/10 05:12:15;;;;;;;57.20;25.65;;;;;;;-4.85;71.21;98971.37;259020;1108;23086;-71
2021/03/10 05:17:17;;;;;;;55.90;24.50;;;;;;;-4.84;71.08;98973.80;258982;1109;23052;-71
2021/03/10 05:22:19;;;;;;;54.27;23.23;;;;;;;-4.81;71.39;98972.63;258941;1109;23529;-72
2021/03/10 05:27:22;;;;;;;60.40;26.90;;;;;;;-4.78;71.24;98977.48;259033;1107;23227;-71
2021/03/10 05:32:24;;;;;;;55.13;26.17;;;;;;;-4.72;70.93;98983.77;259047;1109;23178;-72
2021/03/10 05:37:27;;;;;;;57.77;24.37;;;;;;;-4.68;71.85;98991.05;258996;1108;23245;-71
2021/03/10 05:42:30;;;;;;;59.27;26.33;;;;;;;-4.58;71.75;98988.14;259005;1109;23030;-71
2021/03/10 05:47:32;;;;;;;61.00;27.07;;;;;;;-4.47;71.62;98989.47;259034;1109;23024;-72
2021/03/10 05:52:37;;;;;;;48.83;22.60;;;;;;;-4.37;70.98;98987.36;259077;1108;23161;-72
2021/03/10 05:57:42;;;;;;;52.53;24.03;;;;;;;-4.29;70.74;98989.05;258979;1108;23325;-72
2021/03/10 06:02:44;;;;;;;58.90;26.40;;;;;;;-4.18;71.05;99001.63;259117;1108;26546;-72
2021/03/10 06:08:01;;;;;;;58.40;25.47;;;;;;;-4.05;71.04;98995.70;259007;1109;23023;-72
2021/03/10 06:13:04;;;;;;;58.43;25.67;;;;;;;-3.89;70.68;98997.27;259468;1109;23062;-72
2021/03/10 06:18:06;;;;;;;60.60;26.40;;;;;;;-3.75;70.60;99000.77;258845;1108;23200;-73
2021/03/10 06:23:14;;;;;;;64.27;28.40;;;;;;;-3.61;70.44;99007.75;258902;1109;23229;-73
2021/03/10 06:28:16;;;;;;;65.73;28.43;;;;;;;-3.46;70.40;99017.31;258988;1107;23216;-72
2021/03/10 06:33:23;;;;;;;67.60;29.77;;;;;;;-3.32;70.33;99020.84;259014;1108;23229;-71
2021/03/10 06:38:26;;;;;;;60.83;27.97;;;;;;;-3.23;70.18;99026.73;259491;1109;22998;-72
2021/03/10 06:43:39;;;;;;;78.17;34.17;;;;;;;-3.08;69.75;99026.63;259264;1108;23068;-72
2021/03/10 06:48:55;;;;;;;66.13;28.93;;;;;;;-2.91;69.76;99035.77;259440;1108;23096;-71
2021/03/10 06:53:58;;;;;;;71.60;31.83;;;;;;;-2.73;69.39;99042.33;259518;1108;23028;-72
2021/03/10 06:59:03;;;;;;;65.43;31.53;;;;;;;-2.60;69.07;99047.64;259901;1107;23094;-70
2021/03/10 07:04:11;;;;;;;80.67;33.93;;;;;;;-2.45;69.45;99053.55;260217;1108;23051;-70
2021/03/10 07:09:14;;;;;;;83.50;37.03;;;;;;;-2.32;68.79;99052.78;259349;1108;26031;-71
2021/03/10 07:14:18;;;;;;;90.93;36.80;;;;;;;-2.10;69.25;99057.87;258013;1107;23097;-70
2021/03/10 07:19:20;;;;;;;85.30;37.70;;;;;;;-1.95;68.38;99058.50;259288;1107;23363;-71
2021/03/10 07:24:40;;;;;;;91.03;40.50;;;;;;;-1.72;68.75;99067.84;259749;1108;23016;-70
2021/03/10 07:29:42;;;;;;;104.10;42.97;;;;;;;-1.44;67.96;99065.02;260265;1109;23901;-70
2021/03/10 07:34:45;;;;;;;110.73;47.27;;;;;;;-1.17;68.41;99070.25;259976;1108;23068;-71
2021/03/10 07:39:47;;;;;;;94.00;39.53;;;;;;;-0.88;67.81;99073.45;259833;1108;23287;-72
2021/03/10 07:44:57;;;;;;;83.13;35.57;;;;;;;-0.64;67.09;99071.95;259894;1108;23067;-70
2021/03/10 07:50:03;;;;;;;72.87;30.93;;;;;;;-0.39;66.98;99076.53;260497;1108;23204;-70
2021/03/10 07:55:06;;;;;;;70.70;31.77;;;;;;;-0.12;66.05;99071.92;260460;1107;23463;-71
2021/03/10 08:00:12;;;;;;;53.90;25.70;;;;;;;0.12;65.46;99077.47;259418;1108;23245;-72
2021/03/10 08:05:21;;;;;;;57.47;26.90;;;;;;;0.26;64.52;99084.25;259459;1108;23078;-72
2021/03/10 08:10:27;;;;;;;73.17;33.33;;;;;;;0.39;65.40;99088.62;259430;1108;24793;-70
2021/03/10 08:15:32;;;;;;;70.90;33.43;;;;;;;0.51;65.36;99081.64;259217;1109;26236;-71
2021/03/10 08:20:36;;;;;;;67.83;34.87;;;;;;;0.62;65.23;99085.41;259282;1107;23010;-69
2021/03/10 08:25:38;;;;;;;53.90;25.93;;;;;;;0.78;65.12;99083.25;259763;1108;23011;-69
2021/03/10 08:30:42;;;;;;;72.20;34.15;;;;;;;0.90;64.59;99084.16;257206;1109;23011;-69
2021/03/10 08:35:49;;;;;;;71.30;35.03;;;;;;;0.92;63.25;99082.10;257781;1108;23014;-70
2021/03/10 08:40:51;;;;;;;58.00;29.90;;;;;;;0.99;63.33;99076.77;257717;1108;23230;-69
2021/03/10 08:45:55;;;;;;;49.90;26.57;;;;;;;1.10;62.44;99083.95;257569;1108;23060;-71
2021/03/10 08:51:01;;;;;;;48.27;23.03;;;;;;;1.22;62.89;99086.70;258058;1108;23064;-71
2021/03/10 08:56:06;;;;;;;21.43;11.43;;;;;;;1.45;60.40;99086.02;257926;1108;23088;-70
2021/03/10 09:01:13;;;;;;;13.43;8.03;;;;;;;1.70;58.52;99088.56;259497;1109;23064;-70
2021/03/10 09:06:17;;;;;;;14.93;8.23;;;;;;;1.85;56.66;99082.90;259992;1107;23079;-71
2021/03/10 09:11:20;;;;;;;13.00;6.25;;;;;;;1.96;53.96;99088.45;259215;1108;26453;-69
2021/03/10 09:16:31;;;;;;;9.23;5.83;;;;;;;2.11;53.76;99082.77;257557;1108;23016;-69
2021/03/10 09:22:11;;;;;;;14.87;7.53;;;;;;;2.30;53.59;99089.59;257611;1108;23074;-71
2021/03/10 09:27:32;;;;;;;15.23;7.17;;;;;;;2.46;53.24;99068.82;259475;1107;23422;-70
2021/03/10 09:32:47;;;;;;;14.05;7.30;;;;;;;2.64;52.72;99091.73;257967;1108;22999;-70
2021/03/10 09:37:52;;;;;;;10.95;5.80;;;;;;;2.78;50.82;99089.68;260204;1108;23205;-70
2021/03/10 09:43:04;;;;;;;10.23;7.27;;;;;;;2.80;49.83;99080.48;258861;1108;23064;-70
2021/03/10 09:48:11;;;;;;;12.33;6.93;;;;;;;2.88;49.59;99082.78;261502;1108;26059;-70
2021/03/10 09:53:25;;;;;;;10.17;6.17;;;;;;;2.95;49.59;99079.20;257755;1107;23073;-70
2021/03/10 09:58:50;;;;;;;9.93;6.23;;;;;;;2.95;48.60;99081.86;259802;1108;23013;-69
2021/03/10 10:03:58;;;;;;;11.03;7.37;;;;;;;3.01;48.13;99089.69;259583;1108;23073;-69
2021/03/10 10:09:06;;;;;;;14.87;7.70;;;;;;;3.09;48.01;99083.22;258301;1107;26230;-69
2021/03/10 10:14:10;;;;;;;10.87;7.10;;;;;;;3.19;47.86;99080.81;257899;1107;23087;-68
2021/03/10 10:19:13;;;;;;;15.25;7.60;;;;;;;3.12;46.39;99066.90;257122;1108;23037;-68
2021/03/10 10:24:17;;;;;;;10.20;6.47;;;;;;;3.27;46.81;99069.05;256735;1107;22997;-69
2021/03/10 10:29:20;;;;;;;14.33;7.27;;;;;;;3.37;45.89;99077.22;257993;1107;23083;-69
2021/03/10 10:34:24;;;;;;;8.97;6.03;;;;;;;3.46;46.45;99090.90;257742;1108;23020;-68
2021/03/10 10:39:28;;;;;;;10.33;6.40;;;;;;;3.49;45.67;99094.93;257921;1109;26431;-70
2021/03/10 10:44:30;;;;;;;11.65;7.30;;;;;;;3.51;45.36;99096.31;257030;1107;23080;-69
2021/03/10 10:49:33;;;;;;;12.40;6.73;;;;;;;3.65;45.39;99106.63;257192;1108;23229;-69
2021/03/10 10:54:36;;;;;;;13.70;7.80;;;;;;;3.67;45.38;99100.05;259162;1107;23094;-69
2021/03/10 10:59:40;;;;;;;10.57;7.53;;;;;;;3.75;44.58;99093.59;258462;1108;23018;-70
2021/03/10 11:04:46;;;;;;;12.53;7.57;;;;;;;3.87;44.76;99088.24;258691;1108;23069;-72
2021/03/10 11:09:50;;;;;;;12.23;7.77;;;;;;;4.03;44.87;99081.37;259393;1108;23158;-71
2021/03/10 11:14:56;;;;;;;11.83;7.23;;;;;;;4.13;43.89;99076.27;259461;1108;23375;-71
2021/03/10 11:20:21;;;;;;;11.67;8.27;;;;;;;4.05;43.58;99084.59;259362;1108;23235;-72
2021/03/10 11:25:23;;;;;;;12.07;8.23;;;;;;;3.88;41.44;99089.86;259631;1107;23098;-70
2021/03/10 11:30:25;;;;;;;14.63;8.30;;;;;;;3.68;39.06;99090.25;259767;1108;23197;-71
2021/03/10 11:35:28;;;;;;;13.17;8.37;;;;;;;3.53;42.26;99085.47;260158;1108;23197;-71
2021/03/10 11:40:33;;;;;;;12.87;8.17;;;;;;;3.77;43.31;99081.70;259926;1108;23030;-72
2021/03/10 11:45:37;;;;;;;12.43;7.57;;;;;;;4.06;42.63;99073.75;259812;1109;23024;-71
2021/03/10 11:50:40;;;;;;;16.47;10.00;;;;;;;4.06;42.17;99060.50;259920;1107;23610;-72
2021/03/10 11:55:43;;;;;;;13.83;8.87;;;;;;;4.14;42.56;99056.67;259426;1108;23091;-70
2021/03/10 12:00:45;;;;;;;16.10;9.30;;;;;;;4.24;41.57;99056.83;259531;1108;23036;-72
2021/03/10 12:05:51;;;;;;;16.03;10.10;;;;;;;4.30;42.59;99048.97;259769;1107;23023;-70
2021/03/10 12:10:54;;;;;;;14.95;9.30;;;;;;;4.42;42.47;99050.50;259389;1107;23135;-70
2021/03/10 12:15:57;;;;;;;17.43;10.37;;;;;;;4.52;41.86;99041.90;259013;1109;23056;-70
2021/03/10 12:21:11;;;;;;;16.03;9.97;;;;;;;4.49;41.13;99045.04;257953;1108;23319;-70
2021/03/10 12:26:13;;;;;;;14.95;10.30;;;;;;;4.36;40.49;99055.95;257941;1107;23037;-70
2021/03/10 12:31:16;;;;;;;16.87;10.73;;;;;;;4.34;41.49;99058.03;257801;1109;23023;-70
2021/03/10 12:36:18;;;;;;;16.10;10.07;;;;;;;4.37;41.36;99060.22;257897;1108;23226;-70
2021/03/10 12:41:20;;;;;;;14.80;8.50;;;;;;;4.32;40.51;99060.13;257898;1109;23198;-70
2021/03/10 12:46:22;;;;;;;15.40;9.40;;;;;;;4.23;40.71;99055.22;257279;1108;23210;-70
2021/03/10 12:51:25;;;;;;;18.63;10.13;;;;;;;4.23;41.38;99049.91;260450;1107;23076;-69
2021/03/10 12:56:27;;;;;;;16.40;10.35;;;;;;;4.28;40.31;99047.36;259132;1109;23010;-69
2021/03/10 13:01:29;;;;;;;16.45;10.50;;;;;;;4.25;40.82;99044.36;259373;1108;23071;-69
2021/03/10 13:06:32;;;;;;;17.40;10.70;;;;;;;4.42;41.23;99053.16;259407;1108;23021;-70
2021/03/10 13:11:34;;;;;;;15.60;9.70;;;;;;;4.56;41.38;99048.33;259642;1109;26330;-70
2021/03/10 13:16:38;;;;;;;17.63;10.17;;;;;;;4.62;40.96;99054.52;257569;1109;23024;-69
2021/03/10 13:21:41;;;;;;;19.13;9.73;;;;;;;4.59;40.25;99055.80;257307;1109;23001;-70
2021/03/10 13:26:44;;;;;;;15.63;9.90;;;;;;;4.51;39.07;99048.24;256597;1109;25862;-69
2021/03/10 13:31:46;;;;;;;19.27;10.27;;;;;;;4.44;39.84;99045.74;256796;1109;23068;-70
2021/03/10 13:36:49;;;;;;;13.67;9.63;;;;;;;4.57;40.54;99036.65;257828;1108;23201;-69
2021/03/10 13:41:51;;;;;;;16.20;10.13;;;;;;;4.74;40.27;99039.31;259704;1109;23553;-70
2021/03/10 13:46:53;;;;;;;15.40;9.57;;;;;;;4.89;40.78;99041.36;258820;1109;23023;-69
2021/03/10 13:51:57;;;;;;;14.73;8.57;;;;;;;4.81;39.73;99033.81;258957;1107;28358;-69
2021/03/10 13:56:59;;;;;;;12.57;8.30;;;;;;;4.82;39.30;99031.98;256893;1107;24593;-70
2021/03/10 14:02:02;;;;;;;16.65;9.35;;;;;;;4.81;39.68;99017.89;256827;1107;23181;-70
2021/03/10 14:07:04;;;;;;;13.50;8.87;;;;;;;4.71;38.50;99005.27;259181;1108;23023;-70
2021/03/10 14:12:07;;;;;;;13.13;8.80;;;;;;;4.49;38.24;99005.25;257362;1109;23033;-69
2021/03/10 14:17:10;;;;;;;11.50;8.50;;;;;;;4.41;38.63;98997.69;257839;1109;23152;-70
2021/03/10 14:22:12;;;;;;;14.35;9.40;;;;;;;4.44;39.27;98997.20;259546;1108;23089;-71
2021/03/10 14:27:14;;;;;;;19.70;11.40;;;;;;;4.39;39.15;98989.16;258958;1109;23090;-70
2021/03/10 14:32:16;;;;;;;17.77;9.73;;;;;;;4.38;39.81;98984.89;259400;1108;26431;-69
2021/03/10 14:37:19;;;;;;;15.83;9.40;;;;;;;4.41;39.83;98985.22;259136;1109;23109;-71
2021/03/10 14:42:21;;;;;;;17.57;10.87;;;;;;;4.36;39.11;98979.83;258344;1108;23026;-71
2021/03/10 14:47:24;;;;;;;15.83;9.73;;;;;;;4.26;39.05;98985.78;259102;1109;23097;-69
2021/03/10 14:52:27;;;;;;;12.70;9.07;;;;;;;4.16;38.91;98980.33;259441;1109;23133;-71
2021/03/10 14:57:29;;;;;;;19.07;10.60;;;;;;;4.10;39.17;98982.09;259234;1109;23134;-73
2021/03/10 15:02:31;;;;;;;17.60;10.80;;;;;;;4.04;39.11;98983.06;259511;1108;23060;-71
2021/03/10 15:07:35;;;;;;;18.30;10.60;;;;;;;3.97;38.98;98974.44;259970;1108;26146;-71
2021/03/10 15:12:39;;;;;;;18.57;10.70;;;;;;;3.88;39.41;98979.34;259347;1107;24277;-71
2021/03/10 15:17:41;;;;;;;18.57;11.43;;;;;;;3.83;39.35;98973.94;259211;1109;23021;-71
2021/03/10 15:22:44;;;;;;;16.13;9.90;;;;;;;3.76;39.51;98981.24;259050;1108;23057;-71
2021/03/10 15:27:46;;;;;;;22.30;11.17;;;;;;;3.71;39.85;98986.47;258912;1109;23066;-71
2021/03/10 15:32:48;;;;;;;14.90;10.20;;;;;;;3.60;40.03;98983.62;259036;1107;23076;-71
2021/03/10 15:37:51;;;;;;;16.50;8.53;;;;;;;3.51;39.32;98993.00;258789;1109;23077;-72
2021/03/10 15:42:53;;;;;;;16.13;8.90;;;;;;;3.40;39.71;98999.95;259032;1109;23241;-71
2021/03/10 15:47:56;;;;;;;15.70;9.73;;;;;;;3.32;39.84;99004.81;258973;1109;23226;-71
2021/03/10 15:52:58;;;;;;;16.37;8.80;;;;;;;3.18;40.69;99002.42;258865;1109;23024;-71
2021/03/10 15:58:01;;;;;;;19.40;9.87;;;;;;;3.05;40.27;99002.66;259049;1109;23350;-70
2021/03/10 16:03:03;;;;;;;16.93;10.20;;;;;;;2.91;40.84;99013.52;258892;1108;23025;-70
2021/03/10 16:08:06;;;;;;;23.50;10.97;;;;;;;2.75;40.99;99014.21;258771;1108;23019;-71
2021/03/10 16:13:08;;;;;;;14.87;8.23;;;;;;;2.60;40.64;99021.81;259029;1109;23086;-70
2021/03/10 16:18:10;;;;;;;16.93;9.80;;;;;;;2.43;40.89;99019.84;259032;1109;23052;-71
2021/03/10 16:23:13;;;;;;;16.57;8.37;;;;;;;2.26;40.49;99014.42;258804;1109;23090;-71
2021/03/10 16:28:15;;;;;;;19.27;10.97;;;;;;;2.09;40.56;99016.13;258806;1108;23828;-71
2021/03/10 16:33:17;;;;;;;18.80;10.60;;;;;;;1.91;42.04;99027.56;258810;1107;23023;-72
2021/03/10 16:38:20;;;;;;;26.00;10.47;;;;;;;1.73;42.31;99036.34;258823;1108;22982;-72
2021/03/10 16:43:23;;;;;;;27.75;11.25;;;;;;;1.56;42.17;99039.59;259232;1108;23157;-72
2021/03/10 16:48:26;;;;;;;19.95;9.65;;;;;;;1.39;43.54;99036.76;258703;1109;23070;-72
2021/03/10 16:53:28;;;;;;;24.05;11.40;;;;;;;1.21;43.69;99034.14;258975;1109;22997;-72
2021/03/10 16:58:31;;;;;;;24.90;12.47;;;;;;;1.04;43.02;99037.35;258932;1109;23084;-71
2021/03/10 17:03:34;;;;;;;29.50;14.60;;;;;;;0.88;43.92;99033.44;258890;1109;23048;-70
2021/03/10 17:08:37;;;;;;;56.47;22.47;;;;;;;0.75;44.54;99044.93;259017;1109;23038;-72
2021/03/10 17:13:39;;;;;;;62.90;27.50;;;;;;;0.59;44.54;99056.84;259011;1108;23020;-72
2021/03/10 17:18:42;;;;;;;87.27;34.83;;;;;;;0.46;44.21;99056.94;258843;1109;23030;-71
2021/03/10 17:23:44;;;;;;;97.13;35.63;;;;;;;0.43;44.43;99068.72;258944;1108;23023;-71
2021/03/10 17:28:47;;;;;;;77.30;30.80;;;;;;;0.41;45.76;99080.52;258739;1109;23027;-72
2021/03/10 17:33:49;;;;;;;44.27;19.37;;;;;;;0.30;44.76;99082.02;259064;1107;23091;-71
2021/03/10 17:38:51;;;;;;;41.67;18.73;;;;;;;0.24;45.69;99088.11;258847;1109;23053;-72
2021/03/10 17:43:53;;;;;;;45.80;20.33;;;;;;;0.16;45.53;99082.09;258994;1109;23145;-70
2021/03/10 17:48:56;;;;;;;52.57;23.07;;;;;;;0.09;45.30;99083.16;259021;1109;23042;-71
2021/03/10 17:53:58;;;;;;;55.90;23.07;;;;;;;0.01;46.19;99091.31;258831;1109;23084;-71
2021/03/10 17:59:01;;;;;;;59.23;25.80;;;;;;;-0.13;46.20;99086.10;258965;1108;23094;-71
2021/03/10 18:04:03;;;;;;;65.00;25.50;;;;;;;-0.24;46.44;99099.93;258688;1109;23612;-71
2021/03/10 18:09:06;;;;;;;49.20;20.50;;;;;;;-0.35;47.00;99107.48;259214;1109;23226;-71
2021/03/10 18:14:08;;;;;;;61.47;22.47;;;;;;;-0.41;47.82;99115.40;259226;1108;23090;-71
2021/03/10 18:19:10;;;;;;;42.30;19.00;;;;;;;-0.45;47.84;99119.45;258774;1107;23190;-71
2021/03/10 18:24:14;;;;;;;54.53;23.30;;;;;;;-0.52;48.06;99122.94;259060;1107;23229;-71
2021/03/10 18:29:16;;;;;;;43.20;19.03;;;;;;;-0.56;48.40;99123.53;258715;1109;23228;-71
2021/03/10 18:34:18;;;;;;;36.17;16.43;;;;;;;-0.61;48.65;99126.79;258686;1109;23021;-70
2021/03/10 18:39:21;;;;;;;34.97;14.43;;;;;;;-0.64;49.30;99119.31;258982;1109;23063;-71
2021/03/10 18:44:23;;;;;;;31.93;16.07;;;;;;;-0.67;49.20;99125.00;258717;1109;23160;-71
2021/03/10 18:49:25;;;;;;;33.23;14.60;;;;;;;-0.69;49.34;99134.91;258715;1108;22967;-70
2021/03/10 18:54:28;;;;;;;27.70;14.20;;;;;;;-0.74;49.11;99129.44;258886;1109;23077;-71
2021/03/10 18:59:30;;;;;;;35.73;15.93;;;;;;;-0.81;49.24;99129.48;258847;1109;23080;-71
2021/03/10 19:04:43;;;;;;;38.10;16.03;;;;;;;-0.89;49.53;99138.38;258763;1109;23024;-71
2021/03/10 19:09:47;;;;;;;36.93;14.20;;;;;;;-0.96;49.25;99134.16;258673;1109;25918;-70
2021/03/10 19:14:49;;;;;;;29.10;12.40;;;;;;;-1.03;49.79;99139.41;259019;1109;23023;-71
2021/03/10 19:19:53;;;;;;;31.50;13.43;;;;;;;-1.08;49.62;99136.58;259058;1109;23161;-70
2021/03/10 19:24:55;;;;;;;29.70;13.73;;;;;;;-1.12;49.66;99143.25;258732;1109;23171;-71
2021/03/10 19:29:58;;;;;;;48.47;18.73;;;;;;;-1.16;50.33;99149.92;258733;1108;23087;-71
2021/03/10 19:35:01;;;;;;;49.40;19.87;;;;;;;-1.23;50.51;99142.86;258802;1109;23200;-70
2021/03/10 19:40:04;;;;;;;48.50;21.03;;;;;;;-1.30;50.18;99139.42;258778;1107;24655;-70
2021/03/10 19:45:07;;;;;;;48.80;18.57;;;;;;;-1.34;50.76;99137.38;259124;1108;23030;-71
2021/03/10 19:50:13;;;;;;;49.97;20.17;;;;;;;-1.36;50.75;99129.70;258953;1107;23037;-71
2021/03/10 19:55:21;;;;;;;42.53;18.73;;;;;;;-1.43;50.13;99113.95;258881;1109;23018;-71
2021/03/10 20:00:23;;;;;;;37.63;15.97;;;;;;;-1.50;50.24;99112.31;258986;1109;23027;-70
2021/03/10 20:05:25;;;;;;;40.20;15.33;;;;;;;-1.55;50.20;99111.09;258774;1109;23063;-70
2021/03/10 20:10:28;;;;;;;34.10;14.37;;;;;;;-1.61;50.91;99111.91;259114;1109;23023;-71
2021/03/10 20:15:30;;;;;;;32.57;14.70;;;;;;;-1.64;50.84;99127.25;258867;1109;23155;-70
2021/03/10 20:20:34;;;;;;;66.70;32.70;;;;;;;-1.70;51.74;99123.61;258803;1109;23091;-71
2021/03/10 20:25:36;;;;;;;27.00;12.50;;;;;;;-1.69;51.00;99124.41;258697;1109;23083;-70
2021/03/10 20:30:39;;;;;;;26.27;12.90;;;;;;;-1.74;50.56;99131.06;259299;1108;23154;-70
2021/03/10 20:35:41;;;;;;;28.97;12.63;;;;;;;-1.78;50.74;99137.72;259107;1109;23080;-71
2021/03/10 20:40:43;;;;;;;29.33;11.97;;;;;;;-1.81;51.30;99132.87;259193;1109;23160;-70
2021/03/10 20:45:46;;;;;;;36.47;14.47;;;;;;;-1.83;51.63;99145.41;259042;1108;22997;-72
2021/03/10 20:50:48;;;;;;;35.73;15.60;;;;;;;-1.94;51.55;99136.28;258810;1109;23087;-71
2021/03/10 20:55:51;;;;;;;38.20;15.83;;;;;;;-2.02;51.62;99139.08;258642;1109;23213;-72
2021/03/10 21:00:53;;;;;;;37.20;16.27;;;;;;;-2.12;51.79;99130.77;258947;1107;23475;-72
2021/03/10 21:05:56;;;;;;;39.70;18.03;;;;;;;-2.19;51.84;99124.70;258863;1109;23220;-71
2021/03/10 21:10:59;;;;;;;44.60;19.70;;;;;;;-2.22;51.95;99115.39;259043;1109;23076;-70
2021/03/10 21:16:01;;;;;;;43.53;19.80;;;;;;;-2.22;52.00;99104.06;259143;1107;23091;-70
2021/03/10 21:21:03;;;;;;;46.10;18.67;;;;;;;-2.25;52.04;99095.59;258630;1109;23214;-70
2021/03/10 21:26:06;;;;;;;43.30;18.60;;;;;;;-2.29;52.07;99088.32;258857;1109;23024;-70
2021/03/10 21:31:09;;;;;;;39.17;17.43;;;;;;;-2.34;52.21;99083.64;258735;1107;23494;-70
2021/03/10 21:36:11;;;;;;;47.80;17.90;;;;;;;-2.33;52.23;99077.39;259086;1109;23077;-70
2021/03/10 21:41:14;;;;;;;44.93;19.17;;;;;;;-2.30;52.43;99076.99;259037;1109;23079;-70
2021/03/10 21:46:16;;;;;;;53.60;23.10;;;;;;;-2.33;52.27;99060.84;258651;1109;23073;-70
2021/03/10 21:51:19;;;;;;;47.47;20.17;;;;;;;-2.34;52.04;99073.14;258750;1109;23034;-70
2021/03/10 21:56:22;;;;;;;62.47;25.50;;;;;;;-2.37;52.51;99068.30;258662;1109;23091;-69
2021/03/10 22:01:24;;;;;;;59.80;24.20;;;;;;;-2.37;52.72;99060.42;258771;1108;23224;-69
2021/03/10 22:06:28;;;;;;;59.15;24.40;;;;;;;-2.41;52.67;99062.65;258673;1109;23463;-70
2021/03/10 22:11:30;;;;;;;63.87;24.77;;;;;;;-2.43;52.69;99050.73;259150;1107;23232;-69
2021/03/10 22:16:32;;;;;;;66.87;23.87;;;;;;;-2.46;52.77;99056.37;258054;1108;25064;-70
2021/03/10 22:21:35;;;;;;;69.13;24.40;;;;;;;-2.47;52.76;99060.00;259148;1109;23009;-71
2021/03/10 22:26:39;;;;;;;79.53;28.30;;;;;;;-2.53;52.51;99055.52;259102;1109;23209;-71
2021/03/10 22:31:42;;;;;;;89.20;33.03;;;;;;;-2.59;52.82;99047.44;259490;1107;23066;-70
2021/03/10 22:36:44;;;;;;;86.93;34.17;;;;;;;-2.59;53.22;99046.61;259282;1108;23090;-71
2021/03/10 22:41:46;;;;;;;89.57;33.60;;;;;;;-2.60;53.88;99058.13;258750;1109;23126;-72
2021/03/10 22:46:48;;;;;;;89.05;35.55;;;;;;;-2.64;53.15;99041.97;258727;1109;23077;-72
2021/03/10 22:51:51;;;;;;;90.87;32.47;;;;;;;-2.67;53.83;99039.73;258771;1109;23441;-71
2021/03/10 22:56:53;;;;;;;76.63;30.07;;;;;;;-2.70;53.90;99036.69;258361;1107;23025;-69
2021/03/10 23:01:55;;;;;;;63.90;29.27;;;;;;;-2.66;54.46;99035.29;258809;1109;23023;-70
2021/03/10 23:06:58;;;;;;;78.75;32.90;;;;;;;-2.74;54.71;99023.17;258736;1109;23198;-71
2021/03/10 23:12:00;;;;;;;84.60;35.57;;;;;;;-2.81;54.32;99006.58;259136;1109;23024;-70